Wetterdaten: Woche 08.07.02 - 14.07.02 (KW28)
Datum Zeit Temperatur Luftfeuchte Luftdruck Regenmenge Wind Richtung Taupunkt Windchill
08.07.2002 00:00 14.1 C 90 % 1017.0 hPa 0.0 l/m 0.5 km/h (0 Bft) O-SO 12.4 C 14.1 C
08.07.2002 01:00 13.4 C 92 % 1017.0 hPa 0.0 l/m 1.8 km/h (1 Bft) O-SO 12.2 C 13.4 C
08.07.2002 02:00 12.7 C 96 % 1017.0 hPa 0.0 l/m 1.2 km/h (1 Bft) O-SO 12.1 C 12.7 C
08.07.2002 03:00 12.0 C 98 % 1017.0 hPa 0.0 l/m 1.4 km/h (1 Bft) O-SO 11.8 C 12.0 C
08.07.2002 04:00 11.4 C 100 % 1017.0 hPa 0.0 l/m 1.5 km/h (1 Bft) O-SO 11.3 C 11.4 C
08.07.2002 05:00 11.0 C 100 % 1017.0 hPa 0.0 l/m 1.7 km/h (1 Bft) O-SO 11.0 C 11.0 C
08.07.2002 06:00 11.3 C 99 % 1017.0 hPa 0.0 l/m 1.1 km/h (1 Bft) O-SO 11.1 C 11.3 C
08.07.2002 07:00 13.1 C 95 % 1017.0 hPa 0.0 l/m 0.0 km/h (0 Bft) N 12.3 C 13.1 C
08.07.2002 08:00 15.2 C 86 % 1017.0 hPa 0.0 l/m 0.0 km/h (0 Bft) N 12.8 C 15.2 C
08.07.2002 09:00 18.2 C 75 % 1017.0 hPa 0.0 l/m 1.3 km/h (1 Bft) O-SO 13.6 C 18.2 C
08.07.2002 10:00 21.1 C 65 % 1017.0 hPa 0.0 l/m 4.8 km/h (1 Bft) O-SO 14.2 C 21.1 C
08.07.2002 11:00 24.0 C 54 % 1016.0 hPa 0.0 l/m 4.1 km/h (1 Bft) O 14.2 C 24.0 C
08.07.2002 12:00 26.1 C 45 % 1015.7 hPa 0.0 l/m 2.3 km/h (1 Bft) N 13.1 C 26.1 C
08.07.2002 13:00 28.1 C 39 % 1014.9 hPa 0.0 l/m 1.2 km/h (1 Bft) NW 12.8 C 28.1 C
08.07.2002 14:00 29.8 C 35 % 1014.1 hPa 0.0 l/m 5.7 km/h (1 Bft) O-SO 12.6 C 29.8 C
08.07.2002 15:00 31.5 C 32 % 1013.6 hPa 0.0 l/m 8.5 km/h (2 Bft) O-SO 12.5 C 31.5 C
08.07.2002 16:00 32.2 C 33 % 1012.8 hPa 0.0 l/m 8.3 km/h (2 Bft) O-SO 13.8 C 32.2 C
08.07.2002 17:00 32.0 C 34 % 1012.7 hPa 0.0 l/m 6.9 km/h (2 Bft) SO 14.0 C 32.0 C
08.07.2002 18:00 31.1 C 35 % 1011.8 hPa 0.0 l/m 5.4 km/h (1 Bft) SO 13.6 C 31.1 C
08.07.2002 19:00 29.6 C 38 % 1011.8 hPa 0.0 l/m 6.0 km/h (2 Bft) O-SO 13.5 C 29.6 C
08.07.2002 20:00 27.5 C 42 % 1011.8 hPa 0.0 l/m 6.4 km/h (2 Bft) O-SO 13.5 C 27.5 C
08.07.2002 21:00 22.1 C 61 % 1011.8 hPa 0.0 l/m 6.5 km/h (2 Bft) O-SO 14.0 C 22.1 C
08.07.2002 22:00 19.7 C 73 % 1012.8 hPa 0.0 l/m 3.5 km/h (1 Bft) O-SO 14.6 C 19.7 C
08.07.2002 23:00 18.5 C 77 % 1012.8 hPa 0.0 l/m 0.5 km/h (0 Bft) O-SO 14.4 C 18.5 C
09.07.2002 00:00 17.7 C 80 % 1012.8 hPa 0.0 l/m 2.1 km/h (1 Bft) O-SO 14.3 C 17.7 C
09.07.2002 01:00 16.7 C 85 % 1012.8 hPa 0.0 l/m 0.9 km/h (0 Bft) O-SO 14.2 C 16.7 C
09.07.2002 02:00 16.4 C 89 % 1012.4 hPa 0.0 l/m 3.5 km/h (1 Bft) O-SO 14.5 C 16.4 C
09.07.2002 03:00 15.8 C 93 % 1011.9 hPa 0.0 l/m 3.4 km/h (1 Bft) O-SO 14.7 C 15.8 C
09.07.2002 04:00 15.3 C 95 % 1011.8 hPa 0.0 l/m 0.0 km/h (0 Bft) O-SO 14.5 C 15.3 C
09.07.2002 05:00 14.9 C 98 % 1011.8 hPa 0.0 l/m 3.0 km/h (1 Bft) O-SO 14.7 C 14.9 C
09.07.2002 06:00 15.6 C 94 % 1011.8 hPa 0.0 l/m 0.0 km/h (0 Bft) N 14.7 C 15.6 C
09.07.2002 07:00 16.9 C 91 % 1011.8 hPa 0.0 l/m 0.0 km/h (0 Bft) N 15.3 C 16.9 C
09.07.2002 08:00 18.9 C 80 % 1011.8 hPa 0.0 l/m 0.6 km/h (0 Bft) W-NW 15.4 C 18.9 C
09.07.2002 09:00 21.8 C 70 % 1011.8 hPa 0.0 l/m 2.2 km/h (1 Bft) O-SO 16.0 C 21.8 C
09.07.2002 10:00 24.5 C 62 % 1011.7 hPa 0.0 l/m 3.9 km/h (1 Bft) O-SO 16.6 C 24.5 C
09.07.2002 11:00 26.6 C 52 % 1010.8 hPa 0.0 l/m 1.7 km/h (1 Bft) W-NW 15.8 C 26.6 C
09.07.2002 12:00 28.1 C 39 % 1010.7 hPa 0.0 l/m 5.1 km/h (1 Bft) W-NW 12.8 C 28.1 C
09.07.2002 13:00 29.3 C 33 % 1009.7 hPa 0.0 l/m 4.0 km/h (1 Bft) NW 11.1 C 29.3 C
09.07.2002 14:00 30.6 C 30 % 1009.6 hPa 0.0 l/m 3.0 km/h (1 Bft) NW 11.2 C 30.6 C
09.07.2002 15:00 29.7 C 34 % 1009.6 hPa 0.0 l/m 4.3 km/h (1 Bft) W-NW 12.2 C 29.7 C
09.07.2002 16:00 24.9 C 52 % 1010.5 hPa 0.0 l/m 10.6 km/h (2 Bft) SO 14.2 C 24.9 C
09.07.2002 17:00 19.5 C 76 % 1010.7 hPa 1.2 l/m 18.6 km/h (3 Bft) O-SO 15.1 C 19.5 C
09.07.2002 18:00 22.6 C 68 % 1010.8 hPa 0.0 l/m 4.3 km/h (1 Bft) O-SO 16.5 C 22.6 C
09.07.2002 19:00 20.9 C 75 % 1011.5 hPa 0.0 l/m 2.2 km/h (1 Bft) O-SO 16.2 C 20.9 C
09.07.2002 20:00 20.9 C 77 % 1010.8 hPa 0.0 l/m 3.6 km/h (1 Bft) O-SO 16.8 C 20.9 C
09.07.2002 21:00 20.0 C 81 % 1011.6 hPa 0.0 l/m 1.9 km/h (1 Bft) O-SO 16.5 C 20.0 C
09.07.2002 22:00 18.2 C 89 % 1011.8 hPa 0.0 l/m 1.6 km/h (1 Bft) O-SO 16.3 C 18.2 C
09.07.2002 23:00 17.0 C 93 % 1011.8 hPa 0.0 l/m 1.3 km/h (1 Bft) O-SO 15.9 C 17.0 C
10.07.2002 00:00 16.1 C 97 % 1011.8 hPa 0.0 l/m 3.3 km/h (1 Bft) O-SO 15.7 C 16.1 C
10.07.2002 01:00 15.2 C 99 % 1011.1 hPa 0.0 l/m 2.2 km/h (1 Bft) O-SO 15.0 C 15.2 C
10.07.2002 02:00 14.6 C 100 % 1010.8 hPa 0.0 l/m 0.9 km/h (0 Bft) O-SO 14.5 C 14.6 C
10.07.2002 03:00 14.8 C 99 % 1009.8 hPa 0.0 l/m 0.0 km/h (0 Bft) N 14.7 C 14.8 C
10.07.2002 04:00 15.2 C 100 % 1009.7 hPa 0.3 l/m 0.2 km/h (0 Bft) NW 15.1 C 15.2 C
10.07.2002 05:00 14.6 C 100 % 1008.7 hPa 0.0 l/m 0.2 km/h (0 Bft) O 14.5 C 14.6 C
10.07.2002 06:00 14.7 C 99 % 1008.7 hPa 0.0 l/m 0.0 km/h (0 Bft) N 14.6 C 14.7 C
10.07.2002 07:00 15.8 C 96 % 1007.7 hPa 0.0 l/m 0.0 km/h (0 Bft) N 15.1 C 15.8 C
10.07.2002 08:00 17.5 C 88 % 1007.7 hPa 0.0 l/m 0.0 km/h (0 Bft) N 15.5 C 17.5 C
10.07.2002 09:00 19.4 C 78 % 1007.6 hPa 0.0 l/m 2.1 km/h (1 Bft) W-NW 15.5 C 19.4 C
10.07.2002 10:00 21.2 C 67 % 1008.7 hPa 0.0 l/m 20.7 km/h (4 Bft) NW 14.8 C 21.2 C
10.07.2002 11:00 20.1 C 68 % 1010.1 hPa 0.0 l/m 31.6 km/h (5 Bft) NW 14.0 C 20.1 C
10.07.2002 12:00 17.1 C 87 % 1011.4 hPa 0.6 l/m 12.3 km/h (3 Bft) NW 14.8 C 17.1 C
10.07.2002 13:00 15.3 C 91 % 1012.6 hPa 0.9 l/m 14.9 km/h (3 Bft) NW 13.8 C 15.3 C
10.07.2002 14:00 14.6 C 96 % 1013.0 hPa 1.5 l/m 7.8 km/h (2 Bft) W-NW 14.0 C 14.6 C
10.07.2002 15:00 15.2 C 91 % 1013.9 hPa 0.0 l/m 5.2 km/h (1 Bft) W-NW 13.8 C 15.2 C
10.07.2002 16:00 15.7 C 84 % 1014.5 hPa 0.0 l/m 14.8 km/h (3 Bft) W-NW 13.0 C 15.7 C
10.07.2002 17:00 15.1 C 82 % 1014.9 hPa 0.0 l/m 22.0 km/h (4 Bft) NW 12.0 C 15.1 C
10.07.2002 18:00 15.4 C 78 % 1015.9 hPa 0.0 l/m 3.9 km/h (1 Bft) NW 11.6 C 15.4 C
10.07.2002 19:00 16.5 C 72 % 1015.8 hPa 0.0 l/m 8.1 km/h (2 Bft) NW 11.3 C 16.5 C
10.07.2002 20:00 15.3 C 76 % 1015.9 hPa 0.0 l/m 1.5 km/h (1 Bft) W 11.1 C 15.3 C
10.07.2002 21:00 14.8 C 80 % 1016.2 hPa 0.0 l/m 0.1 km/h (0 Bft) N 11.3 C 14.8 C
10.07.2002 22:00 14.5 C 85 % 1017.0 hPa 0.0 l/m 2.4 km/h (1 Bft) O-SO 11.9 C 14.5 C
10.07.2002 23:00 13.2 C 91 % 1017.2 hPa 0.0 l/m 2.7 km/h (1 Bft) O-SO 11.8 C 13.2 C
11.07.2002 00:00 12.8 C 93 % 1018.0 hPa 0.0 l/m 3.1 km/h (1 Bft) O-SO 11.6 C 12.8 C
11.07.2002 01:00 12.6 C 95 % 1018.0 hPa 0.0 l/m 0.8 km/h (0 Bft) O-SO 11.8 C 12.6 C
11.07.2002 02:00 11.8 C 98 % 1018.0 hPa 0.0 l/m 0.0 km/h (0 Bft) N 11.5 C 11.8 C
11.07.2002 03:00 11.8 C 100 % 1018.2 hPa 0.0 l/m 0.1 km/h (0 Bft) O-SO 11.8 C 11.8 C
11.07.2002 04:00 11.4 C 100 % 1019.0 hPa 0.0 l/m 0.0 km/h (0 Bft) N 11.4 C 11.4 C
11.07.2002 05:00 10.7 C 100 % 1019.0 hPa 0.0 l/m 0.0 km/h (0 Bft) N 10.6 C 10.7 C
11.07.2002 06:00 11.1 C 99 % 1019.0 hPa 0.0 l/m 0.5 km/h (0 Bft) O-SO 11.0 C 11.1 C
11.07.2002 07:00 12.0 C 97 % 1019.1 hPa 0.0 l/m 0.1 km/h (0 Bft) N 11.6 C 12.0 C
11.07.2002 08:00 13.6 C 88 % 1020.1 hPa 0.0 l/m 0.3 km/h (0 Bft) W 11.7 C 13.6 C
11.07.2002 09:00 15.3 C 81 % 1020.1 hPa 0.0 l/m 0.3 km/h (0 Bft) W 12.1 C 15.3 C
11.07.2002 10:00 17.9 C 66 % 1020.1 hPa 0.0 l/m 1.8 km/h (1 Bft) W 11.4 C 17.9 C
11.07.2002 11:00 19.8 C 55 % 1020.1 hPa 0.0 l/m 5.3 km/h (1 Bft) W-NW 10.5 C 19.8 C
11.07.2002 12:00 21.0 C 45 % 1020.3 hPa 0.0 l/m 11.1 km/h (2 Bft) NW 8.5 C 21.0 C
11.07.2002 13:00 22.3 C 43 % 1020.1 hPa 0.0 l/m 12.2 km/h (2 Bft) NW 9.1 C 22.3 C
11.07.2002 14:00 22.9 C 40 % 1020.1 hPa 0.0 l/m 11.2 km/h (2 Bft) NW 8.8 C 22.9 C
11.07.2002 15:00 24.5 C 38 % 1020.1 hPa 0.0 l/m 8.8 km/h (2 Bft) NW 9.3 C 24.5 C
11.07.2002 16:00 25.3 C 38 % 1019.9 hPa 0.0 l/m 8.8 km/h (2 Bft) NW 9.7 C 25.3 C
11.07.2002 17:00 24.2 C 38 % 1019.2 hPa 0.0 l/m 12.7 km/h (3 Bft) NW 9.0 C 24.2 C
11.07.2002 18:00 24.1 C 40 % 1019.0 hPa 0.0 l/m 5.4 km/h (1 Bft) NW 9.5 C 24.1 C
11.07.2002 19:00 23.4 C 40 % 1019.8 hPa 0.0 l/m 12.2 km/h (2 Bft) NW 9.1 C 23.4 C
11.07.2002 20:00 21.8 C 45 % 1020.1 hPa 0.0 l/m 5.3 km/h (1 Bft) NW 9.3 C 21.8 C
11.07.2002 21:00 20.8 C 47 % 1020.1 hPa 0.0 l/m 6.0 km/h (2 Bft) NW 9.1 C 20.8 C
11.07.2002 22:00 19.8 C 51 % 1021.1 hPa 0.0 l/m 2.3 km/h (1 Bft) NW 9.3 C 19.8 C
11.07.2002 23:00 19.0 C 55 % 1021.1 hPa 0.0 l/m 0.0 km/h (0 Bft) N 9.6 C 19.0 C
12.07.2002 00:00 16.7 C 69 % 1021.1 hPa 0.0 l/m 0.4 km/h (0 Bft) O 11.0 C 16.7 C
12.07.2002 01:00 16.2 C 74 % 1021.1 hPa 0.0 l/m 0.0 km/h (0 Bft) N 11.6 C 16.2 C
12.07.2002 02:00 14.7 C 77 % 1021.1 hPa 0.0 l/m 0.0 km/h (0 Bft) N 10.6 C 14.7 C
12.07.2002 03:00 13.2 C 86 % 1020.8 hPa 0.0 l/m 2.7 km/h (1 Bft) O-SO 10.8 C 13.2 C
12.07.2002 04:00 11.8 C 93 % 1020.4 hPa 0.0 l/m 2.7 km/h (1 Bft) O-SO 10.7 C 11.8 C
12.07.2002 05:00 11.4 C 94 % 1021.1 hPa 0.0 l/m 1.4 km/h (1 Bft) O-SO 10.5 C 11.4 C
12.07.2002 06:00 11.6 C 94 % 1021.0 hPa 0.0 l/m 2.8 km/h (1 Bft) O-SO 10.6 C 11.6 C
12.07.2002 07:00 13.0 C 88 % 1021.1 hPa 0.0 l/m 0.0 km/h (0 Bft) N 11.0 C 13.0 C
12.07.2002 08:00 15.0 C 78 % 1021.1 hPa 0.0 l/m 0.5 km/h (0 Bft) NW 11.1 C 15.0 C
12.07.2002 09:00 17.4 C 67 % 1020.2 hPa 0.0 l/m 1.2 km/h (1 Bft) W-NW 11.2 C 17.4 C
12.07.2002 10:00 19.9 C 58 % 1019.9 hPa 0.0 l/m 1.4 km/h (1 Bft) NW 11.2 C 19.9 C
12.07.2002 11:00 22.1 C 48 % 1019.0 hPa 0.0 l/m 3.1 km/h (1 Bft) W-NW 10.5 C 22.1 C
12.07.2002 12:00 24.0 C 40 % 1019.0 hPa 0.0 l/m 1.8 km/h (1 Bft) W-NW 9.6 C 24.0 C
12.07.2002 13:00 26.0 C 33 % 1018.1 hPa 0.0 l/m 2.7 km/h (1 Bft) NW 8.4 C 26.0 C
12.07.2002 14:00 27.0 C 33 % 1017.6 hPa 0.0 l/m 2.6 km/h (1 Bft) NW 9.4 C 27.0 C
12.07.2002 15:00 28.3 C 31 % 1017.0 hPa 0.0 l/m 8.9 km/h (2 Bft) NW 9.6 C 28.3 C
12.07.2002 16:00 28.9 C 32 % 1016.5 hPa 0.0 l/m 9.7 km/h (2 Bft) W-NW 10.7 C 28.9 C
12.07.2002 17:00 29.0 C 34 % 1015.9 hPa 0.0 l/m 7.8 km/h (2 Bft) W-NW 11.7 C 29.0 C
12.07.2002 18:00 28.4 C 37 % 1015.3 hPa 0.0 l/m 7.2 km/h (2 Bft) NW 12.1 C 28.4 C
12.07.2002 19:00 26.9 C 40 % 1014.9 hPa 0.0 l/m 3.9 km/h (1 Bft) W-NW 12.3 C 26.9 C
12.07.2002 20:00 24.8 C 48 % 1014.9 hPa 0.0 l/m 1.2 km/h (1 Bft) W 12.8 C 24.8 C
12.07.2002 21:00 21.6 C 53 % 1014.9 hPa 0.0 l/m 0.3 km/h (0 Bft) SW 11.7 C 21.6 C
12.07.2002 22:00 18.7 C 67 % 1014.9 hPa 0.0 l/m 3.1 km/h (1 Bft) O-SO 12.4 C 18.7 C
12.07.2002 23:00 17.5 C 75 % 1014.9 hPa 0.0 l/m 3.9 km/h (1 Bft) O-SO 13.0 C 17.5 C
13.07.2002 00:00 17.1 C 77 % 1014.9 hPa 0.0 l/m 0.1 km/h (0 Bft) N 13.1 C 17.1 C
13.07.2002 01:00 17.4 C 75 % 1014.9 hPa 0.0 l/m 0.9 km/h (0 Bft) O-SO 13.0 C 17.4 C
13.07.2002 02:00 17.3 C 81 % 1014.9 hPa 0.0 l/m 7.8 km/h (2 Bft) O-SO 13.9 C 17.3 C
13.07.2002 03:00 16.9 C 89 % 1014.9 hPa 0.0 l/m 5.0 km/h (1 Bft) O-SO 15.2 C 16.9 C
13.07.2002 04:00 17.1 C 87 % 1014.9 hPa 0.0 l/m 5.8 km/h (2 Bft) NW 14.9 C 17.1 C
13.07.2002 05:00 17.0 C 81 % 1015.6 hPa 0.6 l/m 7.9 km/h (2 Bft) W-NW 13.6 C 17.0 C
13.07.2002 06:00 15.8 C 94 % 1015.9 hPa 0.3 l/m 1.2 km/h (1 Bft) O 14.9 C 15.8 C
13.07.2002 07:00 15.7 C 97 % 1015.9 hPa 0.0 l/m 1.5 km/h (1 Bft) SO 15.1 C 15.7 C
13.07.2002 08:00 16.2 C 94 % 1015.9 hPa 0.0 l/m 2.4 km/h (1 Bft) SO 15.2 C 16.2 C
13.07.2002 09:00 16.3 C 91 % 1015.9 hPa 0.0 l/m 1.5 km/h (1 Bft) SO 14.9 C 16.3 C
13.07.2002 10:00 17.1 C 88 % 1015.9 hPa 0.0 l/m 2.3 km/h (1 Bft) SO 15.0 C 17.1 C
13.07.2002 11:00 17.7 C 85 % 1015.3 hPa 0.0 l/m 1.1 km/h (0 Bft) O-SO 15.0 C 17.7 C
13.07.2002 12:00 18.8 C 77 % 1014.9 hPa 0.0 l/m 1.3 km/h (1 Bft) W-NW 14.6 C 18.8 C
13.07.2002 13:00 19.8 C 69 % 1014.9 hPa 0.0 l/m 1.7 km/h (1 Bft) W 13.8 C 19.8 C
13.07.2002 14:00 20.6 C 67 % 1014.9 hPa 0.0 l/m 1.7 km/h (1 Bft) NW 14.2 C 20.6 C
13.07.2002 15:00 20.4 C 66 % 1014.9 hPa 0.9 l/m 4.3 km/h (1 Bft) SO 13.7 C 20.4 C
13.07.2002 16:00 14.8 C 95 % 1015.5 hPa 16.8 l/m 6.3 km/h (2 Bft) O-SO 14.0 C 14.8 C
13.07.2002 17:00 15.0 C 99 % 1015.8 hPa 0.9 l/m 0.3 km/h (0 Bft) NW 14.9 C 15.0 C
13.07.2002 18:00 15.3 C 100 % 1016.0 hPa 0.6 l/m 0.1 km/h (0 Bft) N 15.3 C 15.3 C
13.07.2002 19:00 15.5 C 100 % 1017.0 hPa 0.6 l/m 0.1 km/h (0 Bft) N 15.5 C 15.5 C
13.07.2002 20:00 14.9 C 100 % 1017.0 hPa 0.3 l/m 0.2 km/h (0 Bft) S-SO 14.9 C 14.9 C
13.07.2002 21:00 15.0 C 100 % 1017.0 hPa 0.0 l/m 0.1 km/h (0 Bft) N 15.0 C 15.0 C
13.07.2002 22:00 14.9 C 100 % 1017.9 hPa 0.0 l/m 0.0 km/h (0 Bft) N 14.9 C 14.9 C
13.07.2002 23:00 14.4 C 100 % 1018.0 hPa 0.0 l/m 0.3 km/h (0 Bft) NW 14.4 C 14.4 C
14.07.2002 00:00 14.4 C 100 % 1017.6 hPa 0.0 l/m 0.0 km/h (0 Bft) N 14.4 C 14.4 C
14.07.2002 01:00 14.2 C 100 % 1017.5 hPa 0.0 l/m 0.9 km/h (0 Bft) O-SO 14.2 C 14.2 C
14.07.2002 02:00 13.8 C 100 % 1018.0 hPa 0.0 l/m 2.1 km/h (1 Bft) O-SO 13.8 C 13.8 C
14.07.2002 03:00 14.0 C 100 % 1018.0 hPa 0.0 l/m 0.9 km/h (0 Bft) O-SO 14.0 C 14.0 C
14.07.2002 04:00 14.3 C 100 % 1018.0 hPa 0.0 l/m 0.0 km/h (0 Bft) N 14.3 C 14.3 C
14.07.2002 05:00 14.5 C 100 % 1018.0 hPa 0.0 l/m 0.4 km/h (0 Bft) O-SO 14.5 C 14.5 C
14.07.2002 06:00 14.4 C 100 % 1018.0 hPa 0.0 l/m 0.0 km/h (0 Bft) N 14.4 C 14.4 C
14.07.2002 07:00 15.0 C 100 % 1018.3 hPa 0.0 l/m 0.0 km/h (0 Bft) N 15.0 C 15.0 C
14.07.2002 08:00 15.8 C 97 % 1019.0 hPa 0.0 l/m 0.0 km/h (0 Bft) N 15.3 C 15.8 C
14.07.2002 09:00 16.6 C 90 % 1019.0 hPa 0.0 l/m 0.6 km/h (0 Bft) W-NW 14.9 C 16.6 C
14.07.2002 10:00 18.1 C 81 % 1019.0 hPa 0.0 l/m 0.8 km/h (0 Bft) SO 14.7 C 18.1 C
14.07.2002 11:00 18.9 C 75 % 1019.0 hPa 0.0 l/m 1.3 km/h (1 Bft) O-SO 14.4 C 18.9 C
14.07.2002 12:00 19.3 C 73 % 1019.0 hPa 0.0 l/m 1.3 km/h (1 Bft) W-NW 14.3 C 19.3 C
14.07.2002 13:00 19.8 C 70 % 1019.0 hPa 0.0 l/m 0.5 km/h (0 Bft) NW 14.3 C 19.8 C
14.07.2002 14:00 19.4 C 71 % 1018.9 hPa 0.0 l/m 0.8 km/h (0 Bft) NW 14.1 C 19.4 C
14.07.2002 15:00 21.1 C 64 % 1018.0 hPa 0.0 l/m 1.4 km/h (1 Bft) W-NW 13.9 C 21.1 C
14.07.2002 16:00 21.7 C 62 % 1018.0 hPa 0.0 l/m 3.8 km/h (1 Bft) NW 14.1 C 21.7 C
14.07.2002 17:00 21.5 C 63 % 1018.0 hPa 0.0 l/m 1.0 km/h (0 Bft) NW 14.1 C 21.5 C
14.07.2002 18:00 21.5 C 62 % 1018.0 hPa 0.0 l/m 0.7 km/h (0 Bft) NW 13.9 C 21.5 C
14.07.2002 19:00 20.4 C 64 % 1018.0 hPa 0.0 l/m 2.4 km/h (1 Bft) NO 13.3 C 20.4 C
14.07.2002 20:00 19.6 C 68 % 1018.0 hPa 0.0 l/m 1.1 km/h (1 Bft) O 13.4 C 19.6 C
14.07.2002 21:00 18.6 C 72 % 1018.9 hPa 0.0 l/m 4.4 km/h (1 Bft) N-NO 13.4 C 18.6 C
14.07.2002 22:00 18.1 C 75 % 1019.0 hPa 0.0 l/m 3.3 km/h (1 Bft) NO 13.5 C 18.1 C
14.07.2002 23:00 17.2 C 82 % 1018.2 hPa 0.0 l/m 0.7 km/h (0 Bft) O 14.1 C 17.2 C
Min-Datum _ 11.07.02 09.07.02 10.07.02 - 08.07.02 - 12.07.02 11.07.02
_ Min-Zeit 05:28 13:32 09:12 - 00:01 - 13:23 05:28
Minimum _ 10.3 C 27 % 1006.6 hPa - 0.0 km/h (0 Bft) - 6.6 C 10.3 C
Max-Datum _ 08.07.02 08.07.02 12.07.02 13.07.02 10.07.02 - 09.07.02 08.07.02
_ Max-Zeit 15:49 04:22 00:00 16:06 11:36 - 18:17 15:49
Maximum _ 32.4 C 100 % 1021.1 hPa 16.8 l/m 53.5 km/h
NW (7 Bft)
- 17.6 C 32.4 C
Durchschnitt _ 18.6 C 75 % 1015.8 hPa #25.5 l/m 3.4 km/h (1 Bft) O-SO 13.1 C 18.6 C

Durchschnitt Minimum Temp.17.7 C
Durchschnitt Maximum Temp.19.6 C
© Kaiko 2002